Time;durP1;ratioP1;P1;durP2;ratioP2;P2;SDS_P1;SDS_P2;PMS_P1;PMS_P2;Temp;Humidity;BMP_temperature;BMP_pressure;BME280_temperature;BME280_humidity;BME280_pressure;Samples;Min_cycle;Max_cycle;Signal;HPM_P1;HPM_P2
2022/03/01 00:01:25;;;;;;;;;;;;;;;3.66;50.08;102311.59;1739156;81;21172;-80
2022/03/01 00:03:50;;;;;;;;;;;;;;;3.76;49.97;102318.19;1720672;80;20456;-80
2022/03/01 00:06:16;;;;;;;;;;;;;;;3.85;50.27;102313.89;1707576;82;20234;-80
2022/03/01 00:08:41;;;;;;;;;;;;;;;3.84;50.38;102317.43;1723988;81;20197;-81
2022/03/01 00:11:07;;;;;;;;;;;;;;;3.93;50.15;102310.55;1714376;81;20495;-81
2022/03/01 00:13:33;;;;;;;;;;;;;;;3.99;49.74;102305.98;1706694;81;21070;-80
2022/03/01 00:15:58;;;;;;;;;;;;;;;4.06;49.43;102310.06;1711039;81;20203;-82
2022/03/01 00:18:24;;;;;;;;;;;;;;;4.00;49.43;102307.69;1702290;81;20164;-80
2022/03/01 00:20:49;;;;;;;;;;;;;;;3.81;49.88;102305.79;1710708;81;20140;-81
2022/03/01 00:23:15;;;;;;;;;;;;;;;3.68;50.06;102309.77;1714103;81;20157;-81
2022/03/01 00:25:41;;;;;;;;;;;;;;;3.77;50.00;102304.19;1724084;81;21166;-81
2022/03/01 00:28:06;;;;;;;;;;;;;;;3.63;50.29;102301.27;1713370;81;20225;-82
2022/03/01 00:30:32;;;;;;;;;;;;;;;3.49;50.63;102301.78;1706514;81;20213;-81
2022/03/01 00:32:58;;;;;;;;;;;;;;;3.57;50.58;102305.81;1708693;81;20165;-82
2022/03/01 00:35:23;;;;;;;;;;;;;;;3.73;50.13;102296.09;1710247;81;20161;-81
2022/03/01 00:37:49;;;;;;;;;;;;;;;3.79;50.11;102299.75;1725273;81;21088;-82
2022/03/01 00:40:14;;;;;;;;;;;;;;;3.86;49.96;102300.39;1728547;80;20135;-81
2022/03/01 00:42:40;;;;;;;;;;;;;;;3.89;49.92;102295.88;1719097;81;20654;-81
2022/03/01 00:45:06;;;;;;;;;;;;;;;3.82;50.32;102293.09;1710156;81;20799;-82
2022/03/01 00:47:32;;;;;;;;;;;;;;;3.72;50.54;102287.84;1720068;81;20193;-81
2022/03/01 00:49:58;;;;;;;;;;;;;;;3.65;50.68;102294.20;1713762;81;21110;-81
2022/03/01 00:52:24;;;;;;;;;;;;;;;3.63;50.85;102290.81;1707738;81;20180;-82
2022/03/01 00:54:49;;;;;;;;;;;;;;;3.62;50.89;102286.05;1712127;81;20162;-82
2022/03/01 00:57:15;;;;;;;;;;;;;;;3.62;51.00;102285.18;1712190;81;20897;-82
2022/03/01 00:59:40;;;;;;;;;;;;;;;3.69;50.70;102282.27;1704808;81;20188;-82
2022/03/01 01:02:06;;;;;;;;;;;;;;;3.35;51.72;102278.78;1730570;81;22031;-82
2022/03/01 01:04:31;;;;;;;;;;;;;;;3.14;52.20;102273.45;1747364;81;20125;-82
2022/03/01 01:06:57;;;;;;;;;;;;;;;3.09;52.42;102271.43;1749003;81;20715;-81
2022/03/01 01:09:23;;;;;;;;;;;;;;;2.97;52.68;102282.34;1742644;81;20535;-82
2022/03/01 01:11:48;;;;;;;;;;;;;;;2.90;52.85;102273.01;1740476;81;20206;-80
2022/03/01 01:14:14;;;;;;;;;;;;;;;2.79;53.24;102280.75;1740991;81;21099;-80
2022/03/01 01:16:40;;;;;;;;;;;;;;;2.65;53.57;102280.38;1742010;80;20158;-80
2022/03/01 01:19:05;;;;;;;;;;;;;;;2.57;54.19;102275.42;1744323;81;20274;-80
2022/03/01 01:24:15;;;;;;;;;;;;;;;2.76;53.58;102275.63;1740183;81;20573;-81
2022/03/01 01:26:41;;;;;;;;;;;;;;;2.73;53.81;102272.29;1739788;81;21196;-81
2022/03/01 01:29:06;;;;;;;;;;;;;;;2.67;54.15;102269.43;1744724;81;20156;-81
2022/03/01 01:31:32;;;;;;;;;;;;;;;2.72;54.03;102274.06;1737848;81;20129;-81
2022/03/01 01:33:57;;;;;;;;;;;;;;;2.91;53.54;102283.86;1743924;80;20125;-81
2022/03/01 01:36:25;;;;;;;;;;;;;;;2.93;53.21;102278.97;1739579;81;20269;-80
2022/03/01 01:38:51;;;;;;;;;;;;;;;3.10;53.01;102274.91;1737455;81;21073;-83
2022/03/01 01:41:17;;;;;;;;;;;;;;;3.10;52.96;102278.83;1741022;80;20226;-81
2022/03/01 01:43:43;;;;;;;;;;;;;;;3.02;53.15;102272.58;1740979;81;20470;-81
2022/03/01 01:46:08;;;;;;;;;;;;;;;2.96;53.36;102276.71;1735856;81;20112;-81
2022/03/01 01:48:34;;;;;;;;;;;;;;;3.00;53.31;102275.70;1742316;81;20440;-81
2022/03/01 01:50:59;;;;;;;;;;;;;;;3.09;52.91;102274.04;1741795;81;21909;-81
2022/03/01 01:53:25;;;;;;;;;;;;;;;3.14;52.79;102277.79;1742295;81;20196;-81
2022/03/01 01:55:50;;;;;;;;;;;;;;;3.15;52.77;102280.34;1741085;80;20141;-81
2022/03/01 01:58:17;;;;;;;;;;;;;;;3.17;52.70;102277.68;1742094;81;20152;-81
2022/03/01 02:00:44;;;;;;;;;;;;;;;3.19;52.59;102275.42;1747372;80;20656;-81
2022/03/01 02:03:09;;;;;;;;;;;;;;;3.13;52.90;102276.11;1739075;81;21068;-82
2022/03/01 02:05:35;;;;;;;;;;;;;;;3.09;53.12;102276.65;1746706;81;20271;-81
2022/03/01 02:08:01;;;;;;;;;;;;;;;3.08;53.11;102276.27;1744004;81;20132;-81
2022/03/01 02:10:27;;;;;;;;;;;;;;;2.80;53.97;102269.42;1736933;81;21393;-81
2022/03/01 02:12:52;;;;;;;;;;;;;;;2.63;54.35;102273.06;1730233;80;20165;-81
2022/03/01 02:15:18;;;;;;;;;;;;;;;2.73;54.09;102270.52;1740594;81;22035;-81
2022/03/01 02:17:43;;;;;;;;;;;;;;;2.85;53.67;102264.88;1745549;81;20228;-81
2022/03/01 02:20:12;;;;;;;;;;;;;;;2.90;53.65;102266.48;1739772;80;20240;-81
2022/03/01 02:22:37;;;;;;;;;;;;;;;2.87;53.62;102261.78;1737347;80;20799;-81
2022/03/01 02:25:03;;;;;;;;;;;;;;;2.83;53.64;102258.88;1739616;81;20132;-81
2022/03/01 02:27:29;;;;;;;;;;;;;;;2.88;53.69;102264.77;1743616;80;21160;-81
2022/03/01 02:29:55;;;;;;;;;;;;;;;2.79;53.86;102256.42;1745193;81;20544;-82
2022/03/01 02:32:20;;;;;;;;;;;;;;;2.66;54.26;102255.55;1738010;81;20164;-81
2022/03/01 02:34:47;;;;;;;;;;;;;;;2.70;54.38;102254.98;1751240;80;20120;-81
2022/03/01 02:37:13;;;;;;;;;;;;;;;2.64;54.47;102249.97;1740203;80;20188;-81
2022/03/01 02:39:38;;;;;;;;;;;;;;;2.71;54.28;102248.02;1767301;79;21221;-81
2022/03/01 02:42:04;;;;;;;;;;;;;;;2.64;54.30;102246.05;1757992;80;20505;-80
2022/03/01 02:44:30;;;;;;;;;;;;;;;2.72;54.23;102245.36;1750978;80;20200;-81
2022/03/01 02:46:55;;;;;;;;;;;;;;;2.71;54.26;102238.89;1743512;80;20584;-80
2022/03/01 02:49:21;;;;;;;;;;;;;;;2.75;54.05;102240.03;1742986;80;20164;-81
2022/03/01 02:51:47;;;;;;;;;;;;;;;2.49;55.08;102239.16;1748391;80;21080;-80
2022/03/01 02:54:12;;;;;;;;;;;;;;;2.23;55.98;102243.10;1739712;80;20385;-81
2022/03/01 02:56:39;;;;;;;;;;;;;;;2.00;56.69;102243.38;1738379;81;20418;-81
2022/03/01 02:59:05;;;;;;;;;;;;;;;1.86;57.10;102240.37;1737555;81;20193;-81
2022/03/01 03:01:30;;;;;;;;;;;;;;;1.83;57.28;102238.70;1737254;81;20168;-81
2022/03/01 03:03:56;;;;;;;;;;;;;;;1.93;57.01;102236.68;1742604;80;22039;-81
2022/03/01 03:06:22;;;;;;;;;;;;;;;2.10;56.66;102231.77;1735764;80;20172;-81
2022/03/01 03:08:47;;;;;;;;;;;;;;;2.09;56.62;102235.27;1735778;80;20160;-81
2022/03/01 03:11:13;;;;;;;;;;;;;;;2.19;56.30;102230.63;1735149;80;20138;-81
2022/03/01 03:13:38;;;;;;;;;;;;;;;2.29;55.62;102223.34;1746625;80;20230;-81
2022/03/01 03:16:05;;;;;;;;;;;;;;;2.15;55.83;102223.34;1744726;81;21175;-81
2022/03/01 03:18:31;;;;;;;;;;;;;;;2.11;56.02;102226.97;1750922;80;20192;-81
2022/03/01 03:20:58;;;;;;;;;;;;;;;2.19;55.77;102220.20;1746160;81;20158;-81
2022/03/01 03:23:24;;;;;;;;;;;;;;;2.30;55.60;102219.81;1753453;80;20179;-81
2022/03/01 03:25:51;;;;;;;;;;;;;;;2.19;55.81;102219.33;1716420;82;20233;-81
2022/03/01 03:28:17;;;;;;;;;;;;;;;2.22;55.72;102217.50;1721293;80;21157;-81
2022/03/01 03:30:43;;;;;;;;;;;;;;;2.35;55.38;102212.72;1756535;80;20189;-81
2022/03/01 03:33:08;;;;;;;;;;;;;;;2.43;54.97;102215.91;1738487;81;20140;-81
2022/03/01 03:35:34;;;;;;;;;;;;;;;2.48;54.63;102207.92;1752845;80;20132;-81
2022/03/01 03:38:00;;;;;;;;;;;;;;;2.39;54.97;102222.11;1745426;80;21253;-81
2022/03/01 03:40:27;;;;;;;;;;;;;;;2.53;54.50;102223.41;1739853;81;21248;-81
2022/03/01 03:42:53;;;;;;;;;;;;;;;2.55;54.44;102216.37;1739991;81;20130;-81
2022/03/01 03:45:18;;;;;;;;;;;;;;;2.58;54.33;102207.14;1745303;81;20950;-81
2022/03/01 03:47:46;;;;;;;;;;;;;;;2.49;54.55;102210.94;1740605;81;20233;-81
2022/03/01 03:50:12;;;;;;;;;;;;;;;2.20;55.55;102204.10;1732546;80;20544;-80
2022/03/01 03:52:38;;;;;;;;;;;;;;;2.33;55.05;102202.34;1706428;80;21097;-81
2022/03/01 03:55:05;;;;;;;;;;;;;;;2.40;54.80;102202.97;1749976;80;20185;-80
2022/03/01 03:57:32;;;;;;;;;;;;;;;2.45;54.62;102203.66;1744982;80;20183;-82
2022/03/01 03:59:58;;;;;;;;;;;;;;;2.31;54.83;102201.52;1739939;81;20196;-80
2022/03/01 04:02:23;;;;;;;;;;;;;;;2.43;54.65;102206.78;1740096;81;21240;-80
2022/03/01 04:04:49;;;;;;;;;;;;;;;2.39;54.93;102203.02;1695310;84;21182;-80
2022/03/01 04:07:14;;;;;;;;;;;;;;;2.35;54.89;102204.89;1700890;82;20156;-80
2022/03/01 04:09:40;;;;;;;;;;;;;;;2.46;54.67;102207.98;1711384;83;20805;-80
2022/03/01 04:12:06;;;;;;;;;;;;;;;2.47;54.70;102207.52;1695183;84;20757;-81
2022/03/01 04:14:31;;;;;;;;;;;;;;;2.21;55.65;102207.13;1710277;81;20225;-80
2022/03/01 04:16:57;;;;;;;;;;;;;;;2.20;55.53;102208.02;1713333;82;21100;-80
2022/03/01 04:19:23;;;;;;;;;;;;;;;2.27;55.28;102205.58;1695267;83;20534;-80
2022/03/01 04:21:49;;;;;;;;;;;;;;;2.31;55.09;102205.89;1712858;83;20203;-82
2022/03/01 04:24:14;;;;;;;;;;;;;;;2.34;55.05;102208.39;1708210;81;20172;-80
2022/03/01 04:26:43;;;;;;;;;;;;;;;2.36;55.01;102202.66;1697894;83;20161;-80
2022/03/01 04:29:09;;;;;;;;;;;;;;;2.39;54.86;102201.26;1711443;83;20144;-80
2022/03/01 04:31:34;;;;;;;;;;;;;;;2.38;54.92;102199.58;1677415;84;20750;-79
2022/03/01 04:34:00;;;;;;;;;;;;;;;2.35;55.05;102195.77;1696285;84;20144;-80
2022/03/01 04:36:26;;;;;;;;;;;;;;;2.39;54.92;102200.42;1695025;83;20243;-80
2022/03/01 04:38:51;;;;;;;;;;;;;;;2.36;55.00;102193.54;1708668;83;20820;-80
2022/03/01 04:41:17;;;;;;;;;;;;;;;2.37;55.02;102193.11;1713083;83;21146;-80
2022/03/01 04:43:42;;;;;;;;;;;;;;;2.40;54.81;102195.15;1714555;83;20489;-80
2022/03/01 04:46:08;;;;;;;;;;;;;;;2.43;54.79;102188.52;1714511;83;20132;-81
2022/03/01 04:48:34;;;;;;;;;;;;;;;2.40;54.79;102191.23;1716393;82;20148;-80
2022/03/01 04:50:59;;;;;;;;;;;;;;;2.25;55.51;102190.45;1699527;83;20112;-80
2022/03/01 04:53:25;;;;;;;;;;;;;;;1.93;56.62;102187.18;1712932;83;21099;-80
2022/03/01 04:55:50;;;;;;;;;;;;;;;1.64;57.71;102194.16;1691054;83;20311;-81
2022/03/01 04:58:16;;;;;;;;;;;;;;;1.51;58.10;102190.22;1713364;82;20163;-80
2022/03/01 05:00:42;;;;;;;;;;;;;;;1.52;57.96;102190.63;1709717;83;20734;-81
2022/03/01 05:03:07;;;;;;;;;;;;;;;1.40;58.33;102186.20;1704461;81;20180;-80
2022/03/01 05:05:33;;;;;;;;;;;;;;;1.32;58.49;102192.10;1739647;80;21063;-81
2022/03/01 05:07:58;;;;;;;;;;;;;;;1.19;59.00;102192.05;1750568;80;20220;-81
2022/03/01 05:10:24;;;;;;;;;;;;;;;1.34;58.50;102188.99;1738728;80;20186;-81
2022/03/01 05:12:52;;;;;;;;;;;;;;;1.29;58.56;102190.89;1750679;80;20636;-81
2022/03/01 05:15:18;;;;;;;;;;;;;;;1.45;58.00;102190.44;1745637;80;20464;-81
2022/03/01 05:17:43;;;;;;;;;;;;;;;1.45;58.31;102187.83;1745827;80;21164;-81
2022/03/01 05:20:10;;;;;;;;;;;;;;;1.52;57.85;102188.86;1748575;80;20132;-81
2022/03/01 05:22:36;;;;;;;;;;;;;;;1.60;57.56;102188.20;1741702;80;20280;-82
2022/03/01 05:25:02;;;;;;;;;;;;;;;1.66;57.40;102186.30;1732362;80;20196;-80
2022/03/01 05:27:28;;;;;;;;;;;;;;;1.60;57.61;102192.53;1747617;80;20624;-80
2022/03/01 05:29:54;;;;;;;;;;;;;;;1.68;57.24;102195.77;1749825;80;21166;-80
2022/03/01 05:32:20;;;;;;;;;;;;;;;1.74;57.16;102195.58;1744936;80;20849;-80
2022/03/01 05:34:46;;;;;;;;;;;;;;;1.77;56.95;102192.87;1745941;80;20320;-79
2022/03/01 05:37:11;;;;;;;;;;;;;;;1.81;56.96;102191.48;1746819;80;20146;-80
2022/03/01 05:39:37;;;;;;;;;;;;;;;1.82;56.83;102189.25;1750273;80;20143;-81
2022/03/01 05:42:03;;;;;;;;;;;;;;;1.84;56.94;102184.87;1742936;80;21161;-80
2022/03/01 05:44:28;;;;;;;;;;;;;;;1.88;56.80;102187.75;1745123;80;20177;-81
2022/03/01 05:46:56;;;;;;;;;;;;;;;1.93;56.71;102184.58;1742020;80;20169;-80
2022/03/01 05:49:22;;;;;;;;;;;;;;;1.92;56.69;102184.16;1747748;80;20153;-79
2022/03/01 05:51:48;;;;;;;;;;;;;;;1.72;57.34;102190.84;1743710;80;20174;-80
2022/03/01 05:54:13;;;;;;;;;;;;;;;1.66;57.97;102187.13;1750800;80;21050;-80
2022/03/01 05:56:39;;;;;;;;;;;;;;;1.59;58.26;102186.48;1753693;80;20134;-81
2022/03/01 05:59:05;;;;;;;;;;;;;;;1.57;58.71;102183.52;1750639;80;20260;-82
2022/03/01 06:01:30;;;;;;;;;;;;;;;1.55;58.94;102185.33;1742089;80;20115;-80
2022/03/01 06:03:56;;;;;;;;;;;;;;;1.58;58.83;102186.53;1747151;80;20881;-78
2022/03/01 06:06:21;;;;;;;;;;;;;;;1.62;58.72;102185.55;1754341;80;22011;-79
2022/03/01 06:08:47;;;;;;;;;;;;;;;1.57;59.39;102190.02;1751367;80;20153;-79
2022/03/01 06:11:12;;;;;;;;;;;;;;;1.62;59.27;102188.16;1745215;80;20181;-79
2022/03/01 06:13:38;;;;;;;;;;;;;;;1.59;59.54;102183.04;1742585;80;20243;-81
2022/03/01 06:16:04;;;;;;;;;;;;;;;1.49;60.04;102180.30;1745869;80;20168;-80
2022/03/01 06:18:30;;;;;;;;;;;;;;;1.49;60.16;102181.61;1743039;80;21179;-80
2022/03/01 06:20:56;;;;;;;;;;;;;;;1.43;60.45;102186.11;1749913;80;20169;-81
2022/03/01 06:23:22;;;;;;;;;;;;;;;1.58;59.95;102185.23;1749072;80;20249;-82
2022/03/01 06:25:47;;;;;;;;;;;;;;;1.62;59.86;102180.34;1749291;80;20181;-81
2022/03/01 06:28:13;;;;;;;;;;;;;;;1.71;59.57;102180.05;1771846;80;20156;-81
2022/03/01 06:30:39;;;;;;;;;;;;;;;1.80;59.30;102184.09;1717785;82;21120;-83
2022/03/01 06:33:04;;;;;;;;;;;;;;;1.90;58.95;102176.86;1730371;82;20449;-83
2022/03/01 06:35:30;;;;;;;;;;;;;;;1.98;58.61;102176.14;1742247;81;20127;-81
2022/03/01 06:37:56;;;;;;;;;;;;;;;2.07;58.25;102179.75;1746693;81;20167;-81
2022/03/01 06:40:21;;;;;;;;;;;;;;;2.02;58.23;102180.80;1739346;81;20233;-79
2022/03/01 06:42:48;;;;;;;;;;;;;;;1.99;58.17;102176.55;1743742;81;21965;-80
2022/03/01 06:45:13;;;;;;;;;;;;;;;2.03;57.73;102182.05;1741016;81;20244;-83
2022/03/01 06:47:39;;;;;;;;;;;;;;;1.86;57.93;102172.64;1742916;81;20490;-81
2022/03/01 06:50:06;;;;;;;;;;;;;;;1.81;58.16;102173.25;1746413;81;21162;-80
2022/03/01 06:52:32;;;;;;;;;;;;;;;1.94;57.81;102174.53;1747892;81;20131;-81
2022/03/01 06:54:58;;;;;;;;;;;;;;;1.95;57.66;102174.94;1742998;81;21093;-82
2022/03/01 06:57:24;;;;;;;;;;;;;;;2.07;57.26;102180.21;1738921;81;21061;-81
2022/03/01 06:59:53;;;;;;;;;;;;;;;2.09;57.10;102177.94;1744695;81;20203;-81
2022/03/01 07:02:17;;;;;;;;;;;;;;;2.33;56.88;102176.70;1739163;81;20524;-82
2022/03/01 07:04:43;;;;;;;;;;;;;;;2.18;56.46;102170.73;1747920;81;20184;-80
2022/03/01 07:07:09;;;;;;;;;;;;;;;2.21;56.42;102170.62;1745698;81;21093;-82
2022/03/01 07:09:35;;;;;;;;;;;;;;;2.40;56.16;102174.29;1744443;81;20274;-82
2022/03/01 07:12:01;;;;;;;;;;;;;;;2.67;54.97;102175.52;1743442;81;20266;-82
2022/03/01 07:14:26;;;;;;;;;;;;;;;2.63;55.12;102175.25;1745263;81;20115;-81
2022/03/01 07:16:52;;;;;;;;;;;;;;;2.70;54.72;102172.80;1743554;81;20234;-82
2022/03/01 07:19:18;;;;;;;;;;;;;;;2.71;54.57;102169.30;1743128;80;21161;-83
2022/03/01 07:21:43;;;;;;;;;;;;;;;2.96;54.32;102165.80;1744265;81;20281;-82
2022/03/01 07:24:09;;;;;;;;;;;;;;;3.16;54.15;102167.19;1744194;81;20143;-81
2022/03/01 07:26:35;;;;;;;;;;;;;;;3.07;53.92;102167.53;1735650;81;21214;-82
2022/03/01 07:29:00;;;;;;;;;;;;;;;3.00;53.95;102172.15;1746517;80;20197;-80
2022/03/01 07:31:26;;;;;;;;;;;;;;;2.96;53.72;102161.87;1741880;81;21517;-83
2022/03/01 07:33:51;;;;;;;;;;;;;;;3.00;53.52;102156.48;1749225;81;20395;-85
2022/03/01 07:36:17;;;;;;;;;;;;;;;3.09;53.34;102161.80;1743037;81;20169;-81
2022/03/01 07:38:42;;;;;;;;;;;;;;;3.22;53.32;102164.34;1740359;81;20757;-81
2022/03/01 07:41:08;;;;;;;;;;;;;;;3.36;53.21;102157.76;1744401;80;20126;-80
2022/03/01 07:43:33;;;;;;;;;;;;;;;3.49;53.16;102166.80;1739606;80;22529;-81
2022/03/01 07:45:59;;;;;;;;;;;;;;;3.53;53.02;102166.23;1738266;80;20180;-83
2022/03/01 07:48:25;;;;;;;;;;;;;;;3.59;52.85;102168.14;1740167;80;20519;-81
2022/03/01 07:50:50;;;;;;;;;;;;;;;3.65;52.71;102168.80;1739606;81;20096;-81
2022/03/01 07:53:16;;;;;;;;;;;;;;;3.59;52.46;102168.14;1737870;81;20160;-81
2022/03/01 07:55:43;;;;;;;;;;;;;;;3.64;52.02;102161.89;1748004;80;21945;-81
2022/03/01 07:58:08;;;;;;;;;;;;;;;3.70;51.88;102163.80;1743437;81;20135;-80
2022/03/01 08:00:34;;;;;;;;;;;;;;;3.72;51.13;102165.04;1746275;81;20195;-80
2022/03/01 08:02:59;;;;;;;;;;;;;;;3.75;50.90;102160.99;1741982;81;20152;-81
2022/03/01 08:05:25;;;;;;;;;;;;;;;3.86;51.04;102155.33;1746051;80;20128;-80
2022/03/01 08:07:52;;;;;;;;;;;;;;;3.95;50.58;102153.18;1740891;80;21059;-81
2022/03/01 08:10:18;;;;;;;;;;;;;;;4.02;50.89;102160.77;1748251;80;20192;-81
2022/03/01 08:12:43;;;;;;;;;;;;;;;4.00;50.60;102156.07;1751521;80;20193;-81
2022/03/01 08:15:09;;;;;;;;;;;;;;;3.93;50.59;102156.33;1753519;80;20637;-81
2022/03/01 08:17:35;;;;;;;;;;;;;;;4.00;50.39;102156.91;1747694;80;20514;-81
2022/03/01 08:20:01;;;;;;;;;;;;;;;4.09;50.67;102159.61;1734008;80;21163;-80
2022/03/01 08:22:27;;;;;;;;;;;;;;;4.06;50.61;102153.20;1730734;81;20257;-80
2022/03/01 08:24:52;;;;;;;;;;;;;;;4.08;50.46;102160.05;1749655;80;20124;-83
2022/03/01 08:27:18;;;;;;;;;;;;;;;4.01;50.06;102151.22;1750832;80;21353;-80
2022/03/01 08:29:43;;;;;;;;;;;;;;;4.11;50.17;102157.77;1749599;80;20168;-81
2022/03/01 08:32:09;;;;;;;;;;;;;;;4.20;50.17;102157.38;1751027;80;21164;-83
2022/03/01 08:34:35;;;;;;;;;;;;;;;4.29;49.70;102159.60;1740499;80;20524;-81
2022/03/01 08:37:00;;;;;;;;;;;;;;;4.23;49.67;102155.94;1740787;80;20159;-81
2022/03/01 08:39:26;;;;;;;;;;;;;;;4.29;49.53;102153.06;1760555;80;20125;-82
2022/03/01 08:41:54;;;;;;;;;;;;;;;4.37;49.52;102144.89;1731372;81;20163;-82
2022/03/01 08:44:19;;;;;;;;;;;;;;;4.50;49.11;102147.81;1716453;82;20346;-82
2022/03/01 08:46:44;;;;;;;;;;;;;;;4.55;48.95;102152.37;1742980;80;20212;-83
2022/03/01 08:49:10;;;;;;;;;;;;;;;4.66;48.83;102148.84;1744059;81;20191;-82
2022/03/01 08:51:36;;;;;;;;;;;;;;;4.73;48.75;102145.95;1719992;81;20164;-81
2022/03/01 08:54:02;;;;;;;;;;;;;;;4.81;48.50;102150.38;1731797;79;20596;-82
2022/03/01 08:56:28;;;;;;;;;;;;;;;4.94;48.02;102150.22;1734363;81;20462;-81
2022/03/01 08:58:55;;;;;;;;;;;;;;;4.66;48.05;102148.84;1734931;81;20628;-80
2022/03/01 09:01:20;;;;;;;;;;;;;;;4.68;47.85;102147.00;1738275;81;20169;-80
2022/03/01 09:03:46;;;;;;;;;;;;;;;4.90;47.68;102146.03;1736109;81;20735;-80
2022/03/01 09:06:12;;;;;;;;;;;;;;;4.91;47.31;102146.88;1726474;81;20304;-81
2022/03/01 09:08:40;;;;;;;;;;;;;;;4.99;47.42;102142.99;1723743;81;21112;-81
2022/03/01 09:11:05;;;;;;;;;;;;;;;4.95;47.42;102144.05;1723542;81;20280;-80
2022/03/01 09:13:31;;;;;;;;;;;;;;;4.93;47.33;102135.42;1730171;81;20216;-81
2022/03/01 09:15:57;;;;;;;;;;;;;;;4.96;46.90;102136.59;1721025;81;20160;-80
2022/03/01 09:18:22;;;;;;;;;;;;;;;4.99;46.68;102129.91;1723450;81;20195;-79
2022/03/01 09:20:49;;;;;;;;;;;;;;;4.99;47.13;102135.61;1731126;81;22330;-82
2022/03/01 09:23:14;;;;;;;;;;;;;;;4.86;46.49;102127.45;1728561;79;20198;-81
2022/03/01 09:25:40;;;;;;;;;;;;;;;5.13;46.24;102122.72;1723203;81;20168;-82
2022/03/01 09:28:05;;;;;;;;;;;;;;;5.25;46.11;102122.61;1710533;81;21156;-80
2022/03/01 09:30:31;;;;;;;;;;;;;;;5.19;46.31;102124.20;1722176;81;20169;-80
2022/03/01 09:32:57;;;;;;;;;;;;;;;5.39;46.09;102130.65;1730861;81;21107;-81
2022/03/01 09:35:22;;;;;;;;;;;;;;;5.48;45.95;102125.88;1732798;81;20138;-83
2022/03/01 09:37:48;;;;;;;;;;;;;;;5.30;45.77;102127.59;1729936;81;20467;-81
2022/03/01 09:40:14;;;;;;;;;;;;;;;5.14;45.20;102112.64;1731774;81;20135;-81
2022/03/01 09:42:40;;;;;;;;;;;;;;;5.39;45.55;102116.68;1733329;81;20352;-82
2022/03/01 09:45:06;;;;;;;;;;;;;;;5.65;45.76;102107.55;1719882;80;22003;-81
2022/03/01 09:47:32;;;;;;;;;;;;;;;5.55;45.31;102103.70;1729710;81;20222;-82
2022/03/01 09:49:57;;;;;;;;;;;;;;;5.67;45.31;102108.78;1730590;81;20161;-80
2022/03/01 09:52:23;;;;;;;;;;;;;;;5.73;44.88;102100.17;1728840;81;20185;-80
2022/03/01 09:54:49;;;;;;;;;;;;;;;5.79;43.98;102092.92;1723157;81;21110;-80
2022/03/01 09:57:15;;;;;;;;;;;;;;;5.79;44.02;102100.31;1727813;81;21046;-81
2022/03/01 09:59:41;;;;;;;;;;;;;;;5.85;43.71;102099.17;1723752;80;20177;-80
2022/03/01 10:02:06;;;;;;;;;;;;;;;5.67;43.84;102090.00;1730566;81;20204;-83
2022/03/01 10:04:32;;;;;;;;;;;;;;;5.77;43.71;102085.61;1736529;80;20345;-80
2022/03/01 10:06:58;;;;;;;;;;;;;;;5.85;43.89;102082.97;1725436;81;20451;-80
2022/03/01 10:09:24;;;;;;;;;;;;;;;5.91;44.10;102079.19;1725695;81;21854;-81
2022/03/01 10:11:50;;;;;;;;;;;;;;;6.05;43.76;102075.42;1731357;81;20182;-82
2022/03/01 10:14:28;;;;;;;;;;;;;;;6.04;43.43;102065.84;1726672;81;20183;-78
2022/03/01 10:16:54;;;;;;;;;;;;;;;6.10;43.27;102065.53;1728336;81;20227;-81
2022/03/01 10:19:20;;;;;;;;;;;;;;;6.25;42.72;102065.20;1732742;81;20360;-80
2022/03/01 10:21:47;;;;;;;;;;;;;;;6.29;43.87;102056.70;1725496;81;21866;-80
2022/03/01 10:24:15;;;;;;;;;;;;;;;6.41;42.29;102057.36;1728913;81;20204;-78
2022/03/01 10:26:42;;;;;;;;;;;;;;;6.44;42.82;102048.02;1729302;80;20657;-81
2022/03/01 10:29:08;;;;;;;;;;;;;;;6.62;42.54;102046.66;1698505;82;20214;-78
2022/03/01 10:31:34;;;;;;;;;;;;;;;6.94;41.66;102045.33;1748583;80;20199;-85
2022/03/01 10:34:11;;;;;;;;;;;;;;;7.21;40.80;102032.43;1741689;80;21191;-79
2022/03/01 10:36:46;;;;;;;;;;;;;;;7.26;40.98;102030.37;1744571;80;20190;-81
2022/03/01 10:39:20;;;;;;;;;;;;;;;7.31;41.07;102030.11;1732425;80;20573;-78
2022/03/01 10:41:49;;;;;;;;;;;;;;;7.43;40.36;102031.20;1737189;80;20250;-78
2022/03/01 10:44:16;;;;;;;;;;;;;;;7.21;40.87;102028.49;1743255;80;20176;-80
2022/03/01 10:46:46;;;;;;;;;;;;;;;7.47;40.29;102029.62;1746044;80;21133;-81
2022/03/01 10:49:15;;;;;;;;;;;;;;;7.38;40.31;102019.64;1741791;80;38725;-80
2022/03/01 10:52:03;;;;;;;;;;;;;;;7.46;40.36;102013.94;1738219;80;20167;-80
2022/03/01 10:54:34;;;;;;;;;;;;;;;7.58;40.42;102012.34;1738769;80;20203;-83
2022/03/01 10:57:02;;;;;;;;;;;;;;;7.22;40.75;102008.30;1746025;80;20140;-84
2022/03/01 10:59:30;;;;;;;;;;;;;;;7.12;40.42;102003.58;1739473;80;21691;-82
2022/03/01 11:01:56;;;;;;;;;;;;;;;7.19;40.28;102001.44;1733202;80;20184;-81
2022/03/01 11:04:22;;;;;;;;;;;;;;;7.29;40.35;102001.77;1746213;80;20179;-82
2022/03/01 11:06:48;;;;;;;;;;;;;;;7.35;40.31;101986.96;1737413;80;20161;-83
2022/03/01 11:09:14;;;;;;;;;;;;;;;7.22;40.12;101988.12;1742944;81;20191;-84
2022/03/01 11:11:40;;;;;;;;;;;;;;;7.30;40.40;101977.16;1746862;81;21043;-83
2022/03/01 11:14:06;;;;;;;;;;;;;;;7.31;40.51;101984.12;1735011;81;20272;-80
2022/03/01 11:16:47;;;;;;;;;;;;;;;7.31;40.96;101985.44;1744390;81;20282;-84
2022/03/01 11:19:40;;;;;;;;;;;;;;;7.31;39.74;101982.33;1737589;81;20511;-81
2022/03/01 11:22:07;;;;;;;;;;;;;;;7.23;39.58;101975.85;1745977;81;20134;-80
2022/03/01 11:24:32;;;;;;;;;;;;;;;7.34;39.86;101967.70;1741712;81;21291;-83
2022/03/01 11:27:06;;;;;;;;;;;;;;;7.33;40.24;101958.14;1748597;81;20155;-84
2022/03/01 11:29:37;;;;;;;;;;;;;;;7.29;39.84;101968.45;1752698;81;20177;-81
2022/03/01 11:32:06;;;;;;;;;;;;;;;7.30;39.81;101960.08;1739864;81;20176;-83
2022/03/01 11:34:32;;;;;;;;;;;;;;;7.59;39.44;101953.58;1742295;81;20498;-81
2022/03/01 11:36:58;;;;;;;;;;;;;;;7.59;39.52;101947.01;1744954;81;21124;-81
2022/03/01 11:39:27;;;;;;;;;;;;;;;7.68;39.88;101945.14;1745295;81;20219;-84
2022/03/01 11:42:02;;;;;;;;;;;;;;;7.66;39.58;101936.48;1744360;81;20328;-82
2022/03/01 11:44:32;;;;;;;;;;;;;;;7.73;39.24;101928.59;1738551;81;20220;-82
2022/03/01 11:46:58;;;;;;;;;;;;;;;7.79;38.87;101924.28;1735189;81;20165;-82
2022/03/01 11:49:24;;;;;;;;;;;;;;;7.82;39.62;101920.63;1740635;81;21127;-81
2022/03/01 11:51:55;;;;;;;;;;;;;;;7.90;38.55;101913.94;1739946;82;20284;-83
2022/03/01 11:54:30;;;;;;;;;;;;;;;7.99;38.27;101905.12;1743512;81;20113;-81
2022/03/01 11:56:56;;;;;;;;;;;;;;;8.08;38.46;101905.86;1747487;81;20527;-81
2022/03/01 11:59:22;;;;;;;;;;;;;;;8.01;37.81;101908.48;1741304;81;20196;-80
2022/03/01 12:01:48;;;;;;;;;;;;;;;8.03;37.44;101901.33;1747305;81;21135;-82
2022/03/01 12:04:17;;;;;;;;;;;;;;;7.88;37.35;101896.58;1746556;80;20174;-83
2022/03/01 12:06:43;;;;;;;;;;;;;;;8.21;37.59;101882.23;1710620;81;20132;-81
2022/03/01 12:09:10;;;;;;;;;;;;;;;8.21;37.65;101886.18;1696751;83;20144;-81
2022/03/01 12:11:38;;;;;;;;;;;;;;;8.44;36.64;101883.42;1704551;84;20180;-82
2022/03/01 12:14:09;;;;;;;;;;;;;;;8.59;36.28;101883.74;1700822;83;21110;-81
2022/03/01 12:16:35;;;;;;;;;;;;;;;8.65;36.14;101888.22;1701610;83;20529;-82
2022/03/01 12:19:07;;;;;;;;;;;;;;;8.77;37.10;101887.42;1700146;83;20215;-81
2022/03/01 12:21:33;;;;;;;;;;;;;;;8.70;36.12;101888.75;1705535;83;20760;-82
2022/03/01 12:23:58;;;;;;;;;;;;;;;8.74;35.99;101880.55;1691453;82;20631;-83
2022/03/01 12:26:24;;;;;;;;;;;;;;;8.71;36.29;101873.34;1693228;82;21821;-80
2022/03/01 12:28:50;;;;;;;;;;;;;;;8.62;35.53;101871.69;1704733;82;20160;-81
2022/03/01 12:31:22;;;;;;;;;;;;;;;8.59;36.04;101870.58;1701630;82;20150;-81
2022/03/01 12:33:59;;;;;;;;;;;;;;;8.57;36.07;101868.97;1705364;82;20185;-81
2022/03/01 12:36:29;;;;;;;;;;;;;;;8.51;35.80;101864.94;1706081;82;20160;-82
2022/03/01 12:39:00;;;;;;;;;;;;;;;8.63;35.76;101861.98;1707477;83;22071;-81
2022/03/01 12:41:26;;;;;;;;;;;;;;;8.66;35.67;101866.22;1702839;83;20187;-81
2022/03/01 12:43:58;;;;;;;;;;;;;;;8.67;35.97;101853.41;1706209;83;20192;-82
2022/03/01 12:46:24;;;;;;;;;;;;;;;8.92;35.66;101848.69;1697698;84;20190;-81